Time;durP1;ratioP1;P1;durP2;ratioP2;P2;SDS_P1;SDS_P2;PMS_P1;PMS_P2;Temp;Humidity;BMP_temperature;BMP_pressure;BME280_temperature;BME280_humidity;BME280_pressure;Samples;Min_cycle;Max_cycle;Signal;HPM_P1;HPM_P2
2022/10/12 00:00:54;;;;;;;19.58;10.43;;;;;;;18.08;63.15;101331.91;5028997;28;20030;-49
2022/10/12 00:03:21;;;;;;;23.52;10.27;;;;;;;18.17;63.25;101331.28;5030997;28;20022;-49
2022/10/12 00:05:58;;;;;;;19.27;11.45;;;;;;;18.07;64.13;101332.97;5045175;28;20034;-49
2022/10/12 00:08:24;;;;;;;20.60;10.48;;;;;;;18.01;64.78;101323.94;5029156;28;20042;-48
2022/10/12 00:10:51;;;;;;;19.13;10.73;;;;;;;18.15;64.07;101330.69;5029757;28;20061;-49
2022/10/12 00:13:18;;;;;;;17.48;10.80;;;;;;;18.10;63.92;101325.19;5030437;28;20029;-44
2022/10/12 00:15:44;;;;;;;17.42;10.50;;;;;;;18.06;64.44;101329.44;5031687;28;20041;-48
2022/10/12 00:18:10;;;;;;;19.48;10.88;;;;;;;18.05;64.83;101332.41;5030507;28;20025;-48
2022/10/12 00:20:36;;;;;;;21.15;11.32;;;;;;;17.96;65.24;101340.09;5023066;28;20041;-47
2022/10/12 00:23:03;;;;;;;23.23;12.15;;;;;;;17.73;65.52;101335.59;5037164;28;20037;-45
2022/10/12 00:25:29;;;;;;;19.52;10.75;;;;;;;17.28;66.86;101335.47;5027045;28;20040;-47
2022/10/12 00:27:55;;;;;;;19.33;10.70;;;;;;;17.46;65.76;101337.19;5010192;28;20022;-49
2022/10/12 00:30:21;;;;;;;21.77;11.32;;;;;;;17.28;66.05;101332.78;5011942;28;20026;-47
2022/10/12 00:32:47;;;;;;;25.58;11.50;;;;;;;17.46;66.41;101339.91;5015375;28;20041;-50
2022/10/12 00:35:14;;;;;;;16.60;10.52;;;;;;;17.40;65.61;101341.69;5031201;28;20033;-50
2022/10/12 00:37:40;;;;;;;21.20;11.23;;;;;;;17.47;66.51;101339.66;5031705;28;20028;-48
2022/10/12 00:40:06;;;;;;;22.52;11.15;;;;;;;17.47;66.90;101336.94;5032586;28;20033;-50
2022/10/12 00:42:33;;;;;;;18.75;11.80;;;;;;;17.42;66.93;101339.53;5035841;28;20445;-48
2022/10/12 00:44:59;;;;;;;20.77;10.82;;;;;;;17.55;66.36;101335.75;5051706;28;20551;-47
2022/10/12 00:47:36;;;;;;;17.42;10.95;;;;;;;17.13;67.59;101336.78;5055615;28;20032;-50
2022/10/12 00:50:17;;;;;;;19.33;11.55;;;;;;;17.15;67.40;101344.66;5055541;28;20025;-46
2022/10/12 00:53:00;;;;;;;20.83;11.40;;;;;;;17.23;67.43;101332.66;5055441;28;20028;-49
2022/10/12 00:55:29;;;;;;;19.92;11.82;;;;;;;17.29;67.33;101329.81;5038204;28;20037;-49
2022/10/12 00:57:56;;;;;;;22.25;11.82;;;;;;;17.32;67.80;101336.63;5034243;28;20188;-48
2022/10/12 01:00:23;;;;;;;20.70;11.63;;;;;;;17.23;68.00;101327.25;5035282;28;20029;-49
2022/10/12 01:02:52;;;;;;;16.98;11.25;;;;;;;17.09;68.56;101324.78;5034917;28;20028;-49
2022/10/12 01:05:19;;;;;;;25.90;12.00;;;;;;;16.92;69.05;101323.88;5035792;28;20045;-49
2022/10/12 01:07:46;;;;;;;21.95;11.32;;;;;;;16.86;69.66;101324.81;5035365;28;20060;-49
2022/10/12 01:10:12;;;;;;;24.08;11.95;;;;;;;16.83;70.05;101331.53;5034990;28;20075;-48
2022/10/12 01:12:43;;;;;;;22.85;11.68;;;;;;;16.92;70.56;101323.03;5028430;28;20144;-48
2022/10/12 01:15:11;;;;;;;22.45;12.18;;;;;;;16.80;70.77;101323.06;5014332;28;20037;-50
2022/10/12 01:17:58;;;;;;;21.63;11.52;;;;;;;16.70;71.33;101322.78;5014922;28;20104;-46
2022/10/12 01:20:51;;;;;;;29.42;13.07;;;;;;;16.61;71.84;101316.91;5026893;28;20028;-49
2022/10/12 01:23:17;;;;;;;23.77;12.73;;;;;;;16.76;71.04;101327.28;5054313;28;20148;-48
2022/10/12 01:25:55;;;;;;;18.63;12.38;;;;;;;16.51;72.13;101332.88;5054345;28;20081;-48
2022/10/12 01:28:35;;;;;;;27.45;12.65;;;;;;;16.49;72.47;101329.56;5054474;28;20037;-49
2022/10/12 01:31:29;;;;;;;22.17;11.93;;;;;;;16.60;71.35;101329.59;5037473;28;20046;-49
2022/10/12 01:34:29;;;;;;;22.35;13.05;;;;;;;16.42;71.95;101329.69;5044815;28;20132;-49
2022/10/12 01:37:32;;;;;;;20.98;11.85;;;;;;;16.54;71.52;101341.31;5053898;28;20041;-50
2022/10/12 01:40:03;;;;;;;24.40;11.65;;;;;;;16.41;72.48;101338.84;5054123;28;20504;-46
2022/10/12 01:42:36;;;;;;;23.80;12.48;;;;;;;16.03;73.85;101348.16;5053703;28;20032;-46
2022/10/12 01:45:09;;;;;;;27.65;13.23;;;;;;;16.03;73.95;101342.75;5014112;28;20030;-46
2022/10/12 01:47:38;;;;;;;22.20;12.32;;;;;;;15.94;74.18;101343.31;5014383;28;20032;-48
2022/10/12 01:50:09;;;;;;;22.88;13.13;;;;;;;15.97;74.24;101340.16;5014330;28;20478;-49
2022/10/12 01:52:41;;;;;;;23.73;13.00;;;;;;;16.00;74.54;101348.63;5014078;28;20033;-49
2022/10/12 01:55:16;;;;;;;28.75;13.30;;;;;;;15.92;75.08;101359.72;5051676;28;20052;-49
2022/10/12 01:57:52;;;;;;;;;;;;;;;15.94;74.84;101354.13;5054851;28;20397;-46
2022/10/12 02:00:18;;;;;;;25.48;12.02;;;;;;;15.93;74.51;101353.28;5054263;28;20015;-49
2022/10/12 02:02:57;;;;;;;25.33;13.38;;;;;;;15.87;75.36;101353.38;5053323;28;20220;-48
2022/10/12 02:05:32;;;;;;;26.35;12.63;;;;;;;15.95;75.00;101358.47;5053884;28;20029;-48
2022/10/12 02:08:33;;;;;;;22.95;12.48;;;;;;;15.70;75.72;101358.56;5030067;28;20113;-49
2022/10/12 02:11:13;;;;;;;17.63;11.55;;;;;;;15.71;75.56;101361.06;5013984;28;20099;-49
2022/10/12 02:14:00;;;;;;;25.50;12.70;;;;;;;15.78;75.40;101356.41;5013697;28;20076;-48
2022/10/12 02:16:37;;;;;;;26.05;13.40;;;;;;;15.74;76.03;101351.69;5013911;28;20034;-49
2022/10/12 02:19:06;;;;;;;28.17;14.38;;;;;;;15.55;76.63;101362.47;5013948;28;20084;-48
2022/10/12 02:21:34;;;;;;;26.15;14.52;;;;;;;15.54;77.17;101357.28;5027194;28;20389;-46
2022/10/12 02:24:04;;;;;;;22.75;13.77;;;;;;;15.59;76.95;101360.94;5053220;28;20025;-50
2022/10/12 02:26:33;;;;;;;25.65;14.23;;;;;;;15.34;78.34;101365.63;5053232;28;20025;-49
2022/10/12 02:29:02;;;;;;;23.85;13.85;;;;;;;15.38;77.97;101366.81;5053440;28;20053;-47
2022/10/12 02:31:33;;;;;;;22.73;14.57;;;;;;;15.19;78.87;101367.84;5051094;28;20048;-47
2022/10/12 02:34:15;;;;;;;26.85;14.00;;;;;;;15.17;79.10;101372.66;5050741;28;20350;-47
2022/10/12 02:36:55;;;;;;;30.58;13.90;;;;;;;15.15;79.09;101378.25;5033332;28;20505;-50
2022/10/12 02:39:30;;;;;;;28.60;14.13;;;;;;;15.27;78.55;101381.88;5032912;28;20433;-50
2022/10/12 02:42:07;;;;;;;25.45;14.18;;;;;;;15.34;78.71;101383.69;5022440;28;20036;-50
2022/10/12 02:44:37;;;;;;;31.90;13.98;;;;;;;15.09;79.43;101400.72;5032515;28;20155;-48
2022/10/12 02:47:07;;;;;;;21.70;12.50;;;;;;;15.05;79.53;101400.34;5041475;28;20164;-46
2022/10/12 02:49:35;;;;;;;24.40;13.65;;;;;;;14.94;80.03;101402.94;5039980;28;20040;-48
2022/10/12 02:52:06;;;;;;;25.48;13.85;;;;;;;15.07;79.60;101404.69;5032885;28;20112;-46
2022/10/12 02:54:32;;;;;;;21.20;12.38;;;;;;;15.04;79.88;101403.25;5044944;28;20028;-46
2022/10/12 02:56:58;;;;;;;29.63;13.98;;;;;;;15.08;79.75;101404.47;5032554;28;20025;-49
2022/10/12 02:59:24;;;;;;;26.70;13.32;;;;;;;15.09;80.08;101402.59;5032962;28;20108;-47
2022/10/12 03:01:51;;;;;;;27.60;13.07;;;;;;;14.93;80.89;101418.28;5034507;28;20052;-46
2022/10/12 03:04:17;;;;;;;27.83;13.75;;;;;;;15.03;80.32;101418.59;5032353;28;20045;-45
2022/10/12 03:06:43;;;;;;;27.45;12.63;;;;;;;15.07;80.35;101415.47;5030803;28;20025;-49
2022/10/12 03:09:10;;;;;;;22.55;13.05;;;;;;;15.09;80.27;101410.69;5012956;28;20057;-49
2022/10/12 03:11:42;;;;;;;27.23;13.93;;;;;;;15.07;80.29;101412.78;5012961;28;20080;-45
2022/10/12 03:14:13;;;;;;;23.10;12.35;;;;;;;15.04;80.02;101419.41;5036329;28;20049;-47
2022/10/12 03:16:40;;;;;;;19.63;12.30;;;;;;;14.93;80.76;101423.66;5051086;28;20033;-48
2022/10/12 03:19:07;;;;;;;20.90;11.85;;;;;;;15.02;79.95;101425.03;5052501;28;20078;-46
2022/10/12 03:21:33;;;;;;;23.02;12.15;;;;;;;14.94;80.64;101421.81;5052495;28;20029;-46
2022/10/12 03:23:59;;;;;;;19.85;11.88;;;;;;;14.87;80.46;101435.31;5052410;28;20040;-50
2022/10/12 03:26:26;;;;;;;23.33;13.43;;;;;;;14.85;80.95;101423.94;5048570;28;20029;-46
2022/10/12 03:28:52;;;;;;;21.80;12.60;;;;;;;14.86;80.15;101428.28;5034246;28;20504;-48
2022/10/12 03:31:18;;;;;;;23.75;12.35;;;;;;;14.63;81.82;101425.38;5032309;28;20056;-48
2022/10/12 03:33:44;;;;;;;25.85;12.18;;;;;;;14.77;81.36;101433.16;5032212;28;20060;-48
2022/10/12 03:36:10;;;;;;;21.77;12.02;;;;;;;14.73;81.53;101440.00;5032230;28;20025;-49
2022/10/12 03:38:37;;;;;;;22.42;12.55;;;;;;;14.70;81.61;101440.44;5032394;28;20442;-48
2022/10/12 03:41:03;;;;;;;23.27;12.23;;;;;;;14.69;82.12;101440.66;5032569;28;20025;-47
2022/10/12 03:43:29;;;;;;;20.13;11.98;;;;;;;14.75;82.35;101443.31;5051539;28;20036;-46
2022/10/12 03:45:55;;;;;;;20.80;12.02;;;;;;;14.46;83.43;101442.03;5045981;28;20033;-48
2022/10/12 03:48:21;;;;;;;20.30;11.70;;;;;;;14.61;83.08;101446.31;5031413;28;20390;-48
2022/10/12 03:50:49;;;;;;;19.50;11.23;;;;;;;14.61;82.96;101447.16;5030701;28;20032;-46
2022/10/12 03:53:17;;;;;;;18.70;10.95;;;;;;;14.58;82.70;101457.53;5046969;28;20029;-48
2022/10/12 03:55:43;;;;;;;17.58;10.90;;;;;;;14.65;82.19;101461.00;5029712;28;20041;-46
2022/10/12 03:58:10;;;;;;;15.82;10.60;;;;;;;14.58;82.55;101471.00;5029843;28;20033;-48
2022/10/12 04:00:36;;;;;;;24.60;12.48;;;;;;;14.46;83.40;101468.97;5032089;28;20082;-47
2022/10/12 04:03:02;;;;;;;20.45;12.77;;;;;;;14.41;83.43;101467.97;5034383;28;20030;-49
2022/10/12 04:05:30;;;;;;;25.27;12.95;;;;;;;14.55;83.12;101458.81;5031529;28;20492;-48
2022/10/12 04:07:56;;;;;;;23.67;13.90;;;;;;;14.53;82.92;101453.59;5020028;28;20022;-46
2022/10/12 04:10:22;;;;;;;21.42;13.13;;;;;;;14.48;83.34;101466.91;5012196;28;20021;-45
2022/10/12 04:12:48;;;;;;;22.38;12.60;;;;;;;14.55;83.07;101471.41;5011402;28;20041;-49
2022/10/12 04:15:18;;;;;;;20.00;12.32;;;;;;;14.46;82.98;101468.13;5024627;28;20025;-50
2022/10/12 04:17:45;;;;;;;21.75;12.68;;;;;;;14.42;83.73;101475.81;5033051;28;20099;-49
2022/10/12 04:20:11;;;;;;;19.42;11.07;;;;;;;14.38;83.73;101477.31;5051587;28;20021;-47
2022/10/12 04:22:38;;;;;;;23.02;12.20;;;;;;;14.39;83.47;101489.72;5030549;28;20029;-48
2022/10/12 04:25:05;;;;;;;28.17;13.95;;;;;;;14.41;83.80;101471.47;5031586;28;20026;-45
2022/10/12 04:27:31;;;;;;;22.85;14.07;;;;;;;14.45;83.24;101475.41;5031333;28;20083;-49
2022/10/12 04:29:58;;;;;;;23.05;11.95;;;;;;;14.41;83.31;101478.72;5032828;28;20100;-49
2022/10/12 04:32:24;;;;;;;24.92;13.35;;;;;;;14.27;84.12;101476.13;5051365;28;20052;-48
2022/10/12 04:34:50;;;;;;;33.17;13.20;;;;;;;14.38;83.91;101480.00;5051876;28;20057;-45
2022/10/12 04:37:16;;;;;;;23.13;13.50;;;;;;;14.38;83.35;101481.84;5050929;28;20021;-48
2022/10/12 04:39:42;;;;;;;20.80;12.95;;;;;;;14.26;83.56;101487.91;5031729;28;20018;-46
2022/10/12 04:42:09;;;;;;;28.33;13.88;;;;;;;14.24;83.62;101498.06;5032241;28;20070;-47
2022/10/12 04:44:35;;;;;;;25.02;12.40;;;;;;;14.33;83.46;101500.53;5032033;28;20136;-48
2022/10/12 04:47:01;;;;;;;18.33;12.10;;;;;;;14.26;84.03;101495.16;5030441;28;20026;-50
2022/10/12 04:49:28;;;;;;;20.52;12.18;;;;;;;14.42;83.17;101496.53;5031567;28;20053;-49
2022/10/12 04:51:54;;;;;;;25.15;12.68;;;;;;;14.44;82.66;101494.47;5030713;28;20033;-48
2022/10/12 04:54:20;;;;;;;20.83;12.85;;;;;;;14.46;82.76;101498.59;5031069;28;20029;-46
2022/10/12 04:56:46;;;;;;;26.23;12.55;;;;;;;14.42;82.44;101502.75;5029978;28;20061;-48
2022/10/12 04:59:12;;;;;;;26.67;13.38;;;;;;;14.48;82.41;101511.88;5031320;28;20025;-46
2022/10/12 05:01:39;;;;;;;18.60;12.25;;;;;;;14.41;82.46;101522.66;5029688;28;20032;-49
2022/10/12 05:04:05;;;;;;;18.70;12.02;;;;;;;14.36;82.26;101513.56;5029979;28;20402;-49
2022/10/12 05:06:31;;;;;;;20.63;12.27;;;;;;;14.36;82.75;101527.84;5030098;28;20126;-48
2022/10/12 05:08:58;;;;;;;22.65;12.55;;;;;;;14.49;82.57;101535.06;5031366;28;20029;-48
2022/10/12 05:11:24;;;;;;;23.90;12.18;;;;;;;14.39;82.66;101538.22;5030180;28;20033;-49
2022/10/12 05:13:50;;;;;;;25.48;13.30;;;;;;;14.36;82.86;101535.94;5048641;28;20029;-47
2022/10/12 05:16:16;;;;;;;23.63;12.57;;;;;;;14.34;nan;101542.59;5046759;28;20044;-49
2022/10/12 05:18:42;;;;;;;22.30;12.13;;;;;;;14.37;82.20;101547.53;5030767;28;20029;-46
2022/10/12 05:21:09;;;;;;;20.08;12.35;;;;;;;14.29;82.41;101540.53;5029952;28;20021;-49
2022/10/12 05:23:35;;;;;;;22.67;11.65;;;;;;;14.51;82.01;101547.28;5040273;28;20159;-50
2022/10/12 05:26:01;;;;;;;18.83;11.70;;;;;;;14.47;81.90;101548.75;5030486;28;20025;-48
2022/10/12 05:28:27;;;;;;;20.52;12.15;;;;;;;14.47;82.04;101556.84;5034130;28;20180;-49
2022/10/12 05:30:53;;;;;;;21.27;12.57;;;;;;;14.68;80.81;101558.41;5034693;28;20077;-49
2022/10/12 05:33:20;;;;;;;22.63;10.88;;;;;;;14.67;80.77;101562.13;5034584;28;20127;-47
2022/10/12 05:35:47;;;;;;;18.95;11.55;;;;;;;14.75;80.19;101555.66;5034438;28;20086;-46
2022/10/12 05:38:14;;;;;;;18.75;10.50;;;;;;;14.59;80.64;101562.38;5033287;28;20108;-50
2022/10/12 05:40:40;;;;;;;18.13;11.02;;;;;;;14.70;80.07;101572.47;5033143;28;20087;-49
2022/10/12 05:43:06;;;;;;;21.00;11.43;;;;;;;14.65;80.03;101560.69;5034203;28;20022;-48
2022/10/12 05:45:32;;;;;;;19.10;11.48;;;;;;;14.53;80.16;101558.66;5033010;28;20037;-48
2022/10/12 05:47:58;;;;;;;23.42;10.93;;;;;;;14.57;80.15;101563.63;5033063;28;20068;-44
2022/10/12 05:50:25;;;;;;;18.17;10.75;;;;;;;14.51;80.27;101563.44;5034701;28;20048;-48
2022/10/12 05:52:51;;;;;;;18.23;10.73;;;;;;;14.49;80.11;101568.25;5033763;28;20033;-48
2022/10/12 05:55:17;;;;;;;24.23;11.05;;;;;;;14.58;79.93;101566.09;5033207;28;20508;-46
2022/10/12 05:57:44;;;;;;;19.25;10.55;;;;;;;14.52;79.82;101567.78;5032590;28;20520;-48
2022/10/12 06:00:10;;;;;;;17.88;10.98;;;;;;;14.65;79.23;101574.16;5034160;28;20021;-48
2022/10/12 06:02:36;;;;;;;19.80;11.23;;;;;;;14.58;78.90;101576.06;5032475;28;20029;-47
2022/10/12 06:05:04;;;;;;;18.77;11.40;;;;;;;14.62;79.03;101582.69;5033806;28;20040;-49
2022/10/12 06:07:30;;;;;;;20.05;11.88;;;;;;;14.61;79.11;101587.25;5032786;28;20029;-49
2022/10/12 06:09:57;;;;;;;23.02;10.82;;;;;;;14.53;79.41;101587.47;5033805;28;20090;-49
2022/10/12 06:12:23;;;;;;;19.10;10.73;;;;;;;14.49;79.84;101592.47;5031550;28;20033;-49
2022/10/12 06:14:51;;;;;;;19.70;11.65;;;;;;;14.50;79.55;101596.00;5033624;28;20084;-48
2022/10/12 06:17:17;;;;;;;21.15;11.32;;;;;;;14.52;79.78;101597.44;5032754;28;20040;-48
2022/10/12 06:19:43;;;;;;;19.98;11.75;;;;;;;14.47;80.07;101605.31;5032375;28;20048;-47
2022/10/12 06:22:09;;;;;;;23.50;11.25;;;;;;;14.41;80.45;101606.16;5033486;28;20069;-48
2022/10/12 06:24:36;;;;;;;19.40;10.05;;;;;;;14.50;80.71;101609.47;5032101;28;20029;-49
2022/10/12 06:27:02;;;;;;;21.00;11.52;;;;;;;14.51;80.84;101603.88;5034639;28;20025;-49
2022/10/12 06:29:28;;;;;;;20.13;12.70;;;;;;;14.55;80.86;101615.06;5033554;28;20022;-49
2022/10/12 06:31:55;;;;;;;16.42;11.40;;;;;;;14.69;80.46;101610.41;5032125;28;20580;-48
2022/10/12 06:34:21;;;;;;;19.30;11.63;;;;;;;14.92;79.64;101610.69;5033065;28;20088;-45
2022/10/12 06:36:48;;;;;;;17.67;11.10;;;;;;;14.74;80.16;101618.69;5032230;28;20057;-47
2022/10/12 06:39:14;;;;;;;22.27;12.40;;;;;;;14.71;80.67;101605.63;5031963;28;20021;-45
2022/10/12 06:41:41;;;;;;;22.30;11.02;;;;;;;14.64;81.00;101610.22;5031156;28;20112;-48
2022/10/12 06:44:07;;;;;;;22.55;11.88;;;;;;;14.62;81.36;101605.06;5033629;28;20038;-48
2022/10/12 06:46:33;;;;;;;18.38;12.38;;;;;;;14.81;80.79;101615.94;5032131;28;20072;-49
2022/10/12 06:49:00;;;;;;;26.52;12.70;;;;;;;14.73;81.12;101617.88;5031864;28;20485;-47
2022/10/12 06:51:26;;;;;;;20.48;11.95;;;;;;;14.76;81.15;101621.97;5031237;28;20036;-46
2022/10/12 06:53:55;;;;;;;25.80;13.13;;;;;;;14.80;81.14;101620.53;5032589;28;20045;-46
2022/10/12 06:56:21;;;;;;;20.98;12.52;;;;;;;14.81;81.53;101627.56;5032313;28;20041;-47
2022/10/12 06:58:53;;;;;;;24.05;12.45;;;;;;;14.88;81.28;101625.69;5031856;28;20083;-47
2022/10/12 07:01:19;;;;;;;23.55;12.95;;;;;;;15.10;80.33;101630.72;5032346;28;20029;-47
2022/10/12 07:03:45;;;;;;;22.17;12.90;;;;;;;15.10;80.42;101628.84;5030600;28;20038;-49
2022/10/12 07:06:13;;;;;;;26.10;14.63;;;;;;;15.00;80.85;101631.22;5031765;28;20094;-46
2022/10/12 07:08:41;;;;;;;24.17;13.02;;;;;;;15.14;80.64;101637.34;5031276;28;20489;-48
2022/10/12 07:11:10;;;;;;;18.55;11.68;;;;;;;15.13;80.84;101633.81;5031594;28;20026;-49
2022/10/12 07:13:37;;;;;;;21.88;13.20;;;;;;;15.34;79.82;101635.34;5031258;28;20068;-46
2022/10/12 07:16:03;;;;;;;20.90;12.77;;;;;;;15.35;79.61;101636.19;5032903;28;20061;-50
2022/10/12 07:18:30;;;;;;;25.85;12.93;;;;;;;15.37;79.46;101632.19;5033541;28;20025;-48
2022/10/12 07:20:58;;;;;;;19.83;12.57;;;;;;;15.38;79.28;101633.88;5033392;28;20029;-49
2022/10/12 07:23:26;;;;;;;20.27;13.27;;;;;;;15.40;79.26;101631.78;5031674;28;20021;-45
2022/10/12 07:25:52;;;;;;;24.58;13.35;;;;;;;15.29;79.45;101636.00;5032253;28;20110;-46
2022/10/12 07:28:20;;;;;;;23.90;13.27;;;;;;;15.27;79.67;101631.88;5031585;28;20033;-46
2022/10/12 07:30:46;;;;;;;21.17;12.80;;;;;;;15.22;79.41;101631.69;5031968;28;20029;-45
2022/10/12 07:33:13;;;;;;;27.73;14.43;;;;;;;15.28;79.25;101633.53;5029975;28;20029;-46
2022/10/12 07:35:39;;;;;;;22.80;11.95;;;;;;;15.26;79.45;101624.81;5032899;28;20037;-46
2022/10/12 07:38:05;;;;;;;21.00;13.88;;;;;;;15.38;79.25;101630.31;5031426;28;20022;-45
2022/10/12 07:40:32;;;;;;;18.58;13.23;;;;;;;15.39;79.24;101626.59;5032013;28;20381;-47
2022/10/12 07:42:59;;;;;;;22.85;12.07;;;;;;;15.29;79.39;101625.22;5030533;28;20433;-46
2022/10/12 07:45:27;;;;;;;19.80;12.40;;;;;;;15.41;78.72;101624.50;5033674;28;20090;-46
2022/10/12 07:47:55;;;;;;;19.58;12.85;;;;;;;15.22;79.33;101629.00;5051504;28;20063;-46
2022/10/12 07:50:22;;;;;;;24.83;13.77;;;;;;;15.16;79.64;101635.28;5051259;28;20025;-49
2022/10/12 07:52:48;;;;;;;20.55;13.38;;;;;;;15.17;79.90;101636.91;5051623;28;20039;-48
2022/10/12 07:55:14;;;;;;;26.35;13.35;;;;;;;15.22;79.42;101637.09;5051911;28;20071;-49
2022/10/12 07:57:40;;;;;;;23.05;14.60;;;;;;;15.35;79.60;101633.47;5034546;28;20030;-48
2022/10/12 08:00:07;;;;;;;20.45;12.35;;;;;;;15.38;79.35;101630.31;5022819;28;20026;-49
2022/10/12 08:02:34;;;;;;;17.73;11.98;;;;;;;15.54;79.06;101630.63;5022751;28;20120;-49
2022/10/12 08:05:00;;;;;;;21.05;11.48;;;;;;;15.62;78.77;101631.41;5031571;28;20045;-48
2022/10/12 08:07:27;;;;;;;18.30;10.38;;;;;;;15.54;78.79;101633.31;5014834;28;20057;-49
2022/10/12 08:09:53;;;;;;;15.55;10.20;;;;;;;15.49;79.26;101629.63;5011956;28;20022;-49
2022/10/12 08:12:19;;;;;;;16.38;10.85;;;;;;;15.44;78.96;101635.69;5036598;28;20055;-48
2022/10/12 08:14:45;;;;;;;23.17;11.35;;;;;;;15.40;79.39;101637.19;5051501;28;20048;-47
2022/10/12 08:17:12;;;;;;;21.30;11.45;;;;;;;15.37;79.95;101634.91;5046498;28;20025;-46
2022/10/12 08:19:38;;;;;;;16.88;11.23;;;;;;;15.44;79.76;101629.47;5030915;28;20034;-49
2022/10/12 08:22:04;;;;;;;16.13;10.95;;;;;;;15.36;79.93;101619.75;5031330;28;20076;-47
2022/10/12 08:24:30;;;;;;;22.58;11.32;;;;;;;15.43;79.94;101634.03;5031259;28;20549;-49
2022/10/12 08:26:56;;;;;;;21.48;11.75;;;;;;;15.37;80.18;101634.91;5030303;28;20063;-49
2022/10/12 08:29:23;;;;;;;21.05;11.25;;;;;;;15.31;80.46;101633.06;5031861;28;20113;-49
2022/10/12 08:31:50;;;;;;;18.25;11.50;;;;;;;15.27;80.84;101632.69;5031361;28;20070;-45
2022/10/12 08:34:16;;;;;;;25.13;12.10;;;;;;;15.28;81.10;101636.22;5033526;28;20490;-48
2022/10/12 08:36:42;;;;;;;20.33;12.32;;;;;;;15.30;80.81;101632.25;5036736;28;20025;-50
2022/10/12 08:39:08;;;;;;;25.77;11.73;;;;;;;15.15;81.23;101630.91;5030605;28;20065;-48
2022/10/12 08:41:42;;;;;;;18.05;11.80;;;;;;;15.18;81.58;101641.25;5031486;28;20021;-50
2022/10/12 08:44:14;;;;;;;19.23;11.85;;;;;;;15.16;81.33;101635.28;5028284;28;20029;-49
2022/10/12 08:46:41;;;;;;;23.77;12.82;;;;;;;15.20;81.91;101631.91;5031870;28;20034;-48
2022/10/12 08:49:07;;;;;;;21.73;13.20;;;;;;;15.14;81.67;101640.03;5030634;28;20088;-48
2022/10/12 08:51:48;;;;;;;25.02;11.80;;;;;;;15.13;81.50;101635.69;5031361;28;20034;-47
2022/10/12 08:54:19;;;;;;;22.75;12.23;;;;;;;15.13;81.96;101639.22;5029188;28;20037;-47
2022/10/12 08:56:45;;;;;;;23.38;12.15;;;;;;;15.17;81.71;101636.91;5031205;28;20398;-46
2022/10/12 08:59:14;;;;;;;19.38;11.50;;;;;;;14.95;82.31;101639.94;5030219;28;20108;-49
2022/10/12 09:01:49;;;;;;;25.95;12.48;;;;;;;14.99;82.46;101637.63;5039075;28;20038;-49
2022/10/12 09:04:46;;;;;;;23.33;10.93;;;;;;;14.94;82.46;101634.78;5034618;28;20511;-48
2022/10/12 09:07:19;;;;;;;23.13;12.15;;;;;;;14.73;83.36;101635.91;5034025;28;20470;-46
2022/10/12 09:10:13;;;;;;;23.40;11.82;;;;;;;14.82;83.18;101641.84;5035024;28;20029;-49
2022/10/12 09:12:54;;;;;;;18.05;10.93;;;;;;;14.84;82.95;101635.22;5032633;28;20021;-49
2022/10/12 09:15:32;;;;;;;19.90;11.35;;;;;;;14.84;82.89;101627.16;5054902;28;20025;-47
2022/10/12 09:18:01;;;;;;;19.83;11.95;;;;;;;14.97;81.99;101634.31;5037936;28;20029;-45
2022/10/12 09:20:34;;;;;;;20.85;11.02;;;;;;;14.94;82.03;101638.28;5034620;28;20033;-47
2022/10/12 09:23:15;;;;;;;17.13;11.25;;;;;;;14.87;82.58;101644.75;5033262;28;20055;-49
2022/10/12 09:25:42;;;;;;;21.40;11.60;;;;;;;14.88;82.46;101646.38;5014756;28;20034;-47
2022/10/12 09:28:38;;;;;;;21.42;12.10;;;;;;;14.94;82.84;101645.56;5028951;28;20030;-48
2022/10/12 09:31:19;;;;;;;20.13;11.70;;;;;;;14.95;83.00;101637.25;5029930;28;20060;-46
2022/10/12 09:33:53;;;;;;;19.40;11.43;;;;;;;14.90;82.62;101645.16;5036190;28;20713;-48
2022/10/12 09:36:22;;;;;;;17.92;10.88;;;;;;;14.71;83.22;101633.44;5040923;28;20071;-49
2022/10/12 09:38:50;;;;;;;21.58;12.68;;;;;;;14.87;82.57;101640.16;5034412;28;20108;-48
2022/10/12 09:41:32;;;;;;;20.02;11.07;;;;;;;14.84;82.35;101647.88;5033293;28;20025;-47
2022/10/12 09:44:01;;;;;;;20.85;12.35;;;;;;;14.86;82.29;101640.41;5034197;28;20496;-49
2022/10/12 09:47:05;;;;;;;28.30;12.85;;;;;;;14.62;83.12;101642.78;5040426;28;20033;-46
2022/10/12 09:49:40;;;;;;;22.60;12.35;;;;;;;14.63;83.10;101643.59;4991822;28;20058;-48
2022/10/12 09:52:07;;;;;;;22.42;12.18;;;;;;;14.77;83.07;101646.03;5028670;28;20029;-49
2022/10/12 09:54:34;;;;;;;24.25;12.50;;;;;;;14.65;82.95;101644.22;5035109;28;20378;-50
2022/10/12 09:57:01;;;;;;;23.75;12.35;;;;;;;14.54;83.72;101637.63;5054083;28;20428;-49
2022/10/12 09:59:37;;;;;;;23.48;12.65;;;;;;;14.52;83.95;101640.53;5049563;28;20084;-50
2022/10/12 10:02:14;;;;;;;23.45;13.15;;;;;;;14.61;84.06;101640.31;5033521;28;20021;-46
2022/10/12 10:04:42;;;;;;;25.00;13.02;;;;;;;14.72;83.81;101643.16;5032755;28;20060;-47
2022/10/12 10:07:22;;;;;;;25.38;13.40;;;;;;;14.74;83.36;101645.63;5031126;28;20398;-48
2022/10/12 10:10:17;;;;;;;23.80;13.15;;;;;;;14.87;82.91;101640.16;5017121;28;20025;-49
2022/10/12 10:12:53;;;;;;;21.52;11.27;;;;;;;14.87;82.74;101644.75;5033914;28;20486;-50
2022/10/12 10:15:32;;;;;;;19.10;11.25;;;;;;;14.76;82.82;101638.16;5033467;28;20040;-47
2022/10/12 10:18:01;;;;;;;21.58;11.75;;;;;;;14.81;82.61;101641.03;5053563;28;20549;-49
2022/10/12 10:20:39;;;;;;;27.83;12.40;;;;;;;14.75;82.71;101640.03;5046568;28;20496;-48
2022/10/12 10:23:05;;;;;;;22.90;12.50;;;;;;;14.83;82.94;101646.22;5033374;28;20029;-49
2022/10/12 10:25:32;;;;;;;19.90;11.20;;;;;;;14.87;82.46;101645.56;5032298;28;20033;-49
2022/10/12 10:28:23;;;;;;;20.48;11.38;;;;;;;14.86;83.14;101652.00;5051761;28;20127;-46
2022/10/12 10:31:04;;;;;;;25.85;12.82;;;;;;;14.94;82.43;101654.47;5042368;28;20781;-45
2022/10/12 10:33:33;;;;;;;22.20;12.02;;;;;;;14.92;82.21;101645.75;5033234;28;20041;-49
2022/10/12 10:36:22;;;;;;;22.15;11.45;;;;;;;14.93;82.07;101642.00;5032070;28;20037;-45
2022/10/12 10:38:53;;;;;;;20.52;11.48;;;;;;;14.89;82.06;101651.59;5033340;28;20108;-47
2022/10/12 10:41:24;;;;;;;17.48;10.98;;;;;;;14.79;82.21;101648.53;5032446;28;20456;-47
2022/10/12 10:43:50;;;;;;;19.67;10.57;;;;;;;14.88;81.90;101644.53;5052556;28;20078;-45
2022/10/12 10:46:24;;;;;;;22.08;11.38;;;;;;;14.95;82.16;101644.50;5037672;28;20072;-46
2022/10/12 10:48:57;;;;;;;19.23;11.55;;;;;;;14.95;81.49;101649.91;5033041;28;20032;-49
2022/10/12 10:51:52;;;;;;;23.85;11.77;;;;;;;14.93;81.95;101647.41;5031895;28;20034;-48
2022/10/12 10:54:31;;;;;;;19.35;11.30;;;;;;;15.01;81.04;101649.84;5039055;28;20392;-47
2022/10/12 10:59:35;;;;;;;;;;;;;;;15.00;81.25;101653.59;5804332;23;20061;-56
2022/10/12 11:02:18;;;;;;;21.27;11.57;;;;;;;15.11;80.99;101651.28;5017546;28;19927;-56
2022/10/12 11:04:51;;;;;;;21.08;11.50;;;;;;;15.00;80.71;101650.91;5017414;28;20038;-56
2022/10/12 11:07:23;;;;;;;20.38;9.98;;;;;;;15.05;80.53;101651.09;5031947;28;20025;-56
2022/10/12 11:09:55;;;;;;;19.02;10.70;;;;;;;15.12;80.71;101647.53;5032505;28;20052;-56
2022/10/12 11:12:42;;;;;;;22.90;11.75;;;;;;;15.20;80.23;101642.69;5032709;28;20104;-56
2022/10/12 11:15:40;;;;;;;20.95;11.40;;;;;;;15.30;79.55;101644.91;5049986;28;20048;-56
2022/10/12 11:18:29;;;;;;;22.55;11.55;;;;;;;15.39;79.38;101651.72;5020356;28;20038;-56
2022/10/12 11:21:07;;;;;;;17.30;10.88;;;;;;;15.12;80.49;101655.63;5035501;28;20494;-56
2022/10/12 11:28:37;;;;;;;19.90;11.15;;;;;;;15.08;80.23;101655.22;5015986;28;19968;-57
2022/10/12 11:31:06;;;;;;;20.35;10.45;;;;;;;15.24;79.82;101659.28;5021659;28;20065;-57